Time;durP1;ratioP1;P1;durP2;ratioP2;P2;SDS_P1;SDS_P2;PMS_P1;PMS_P2;Temp;Humidity;BMP_temperature;BMP_pressure;BME280_temperature;BME280_humidity;BME280_pressure;Samples;Min_cycle;Max_cycle;Signal;HPM_P1;HPM_P2
2021/12/15 00:02:03;;;;;;;60.42;23.77;;;;;;;;;;5094461;28;20115;-77
2021/12/15 00:04:29;;;;;;;57.58;22.52;;;;;;;;;;5111874;28;20043;-76
2021/12/15 00:06:55;;;;;;;54.35;23.48;;;;;;;;;;5110643;28;20127;-76
2021/12/15 00:09:21;;;;;;;59.90;23.05;;;;;;;;;;5112074;28;20047;-76
2021/12/15 00:11:48;;;;;;;59.22;23.08;;;;;;;;;;5110862;28;20051;-76
2021/12/15 00:14:16;;;;;;;56.50;23.27;;;;;;;;;;5111043;28;20118;-76
2021/12/15 00:16:42;;;;;;;68.53;24.20;;;;;;;;;;5110540;28;20421;-76
2021/12/15 00:19:09;;;;;;;56.50;22.27;;;;;;;;;;5110684;28;20050;-76
2021/12/15 00:21:35;;;;;;;64.07;22.88;;;;;;;;;;5110278;28;20055;-76
2021/12/15 00:24:03;;;;;;;58.35;22.75;;;;;;;;;;5110692;28;20039;-77
2021/12/15 00:26:29;;;;;;;64.00;23.30;;;;;;;;;;5110215;28;20082;-83
2021/12/15 00:28:55;;;;;;;59.65;22.75;;;;;;;;;;5112312;28;20140;-83
2021/12/15 00:31:21;;;;;;;57.35;21.88;;;;;;;;;;5110952;28;20052;-83
2021/12/15 00:33:48;;;;;;;63.88;24.48;;;;;;;;;;5093701;28;20040;-84
2021/12/15 00:36:15;;;;;;;53.58;22.20;;;;;;;;;;5110303;28;20047;-76
2021/12/15 00:38:41;;;;;;;59.22;22.40;;;;;;;;;;5110191;28;20039;-76
2021/12/15 00:41:07;;;;;;;55.92;23.60;;;;;;;;;;5110605;28;20119;-76
2021/12/15 00:43:34;;;;;;;67.43;23.08;;;;;;;;;;5110160;28;20381;-83
2021/12/15 00:46:00;;;;;;;62.28;23.83;;;;;;;;;;5093664;28;20161;-83
2021/12/15 00:48:27;;;;;;;62.45;23.80;;;;;;;;;;5093160;28;20049;-76
2021/12/15 00:50:53;;;;;;;63.08;23.08;;;;;;;;;;5110562;28;20404;-76
2021/12/15 00:53:19;;;;;;;66.07;24.17;;;;;;;;;;5110809;28;20075;-76
2021/12/15 00:55:45;;;;;;;61.65;25.05;;;;;;;;;;5093211;28;20048;-77
2021/12/15 00:58:12;;;;;;;70.75;24.42;;;;;;;;;;5093530;28;20411;-76
2021/12/15 01:00:41;;;;;;;60.60;23.85;;;;;;;;;;5093164;28;20483;-76
2021/12/15 01:03:07;;;;;;;61.38;24.40;;;;;;;;;;5109915;28;20039;-76
2021/12/15 01:05:35;;;;;;;65.88;24.77;;;;;;;;;;5109675;28;20512;-76
2021/12/15 01:08:03;;;;;;;67.07;25.55;;;;;;;;;;5111060;28;20032;-76
2021/12/15 01:10:43;;;;;;;66.97;24.65;;;;;;;;;;5109522;28;20318;-76
2021/12/15 01:21:08;;;;;;;68.68;24.70;;;;;;;;;;5110138;28;20375;-83
2021/12/15 01:23:34;;;;;;;78.65;27.25;;;;;;;;;;5092648;28;20490;-83
2021/12/15 01:26:05;;;;;;;72.15;25.55;;;;;;;;;;5111046;28;20572;-83
2021/12/15 01:28:32;;;;;;;75.28;25.38;;;;;;;;;;5111003;28;20626;-83
2021/12/15 01:30:59;;;;;;;72.60;26.27;;;;;;;;;;5109580;28;20060;-83
2021/12/15 01:33:25;;;;;;;66.40;25.45;;;;;;;;;;5093094;28;20036;-83
2021/12/15 01:35:53;;;;;;;72.43;26.10;;;;;;;;;;5126793;27;20384;-83
2021/12/15 01:38:21;;;;;;;78.00;26.40;;;;;;;;;;5109796;28;20467;-83
2021/12/15 01:40:47;;;;;;;71.70;26.30;;;;;;;;;;5110195;28;20055;-76
2021/12/15 01:43:19;;;;;;;69.88;26.42;;;;;;;;;;5109557;28;20043;-83
2021/12/15 01:48:41;;;;;;;73.30;25.10;;;;;;;;;;5108726;28;20047;-83
2021/12/15 01:51:09;;;;;;;67.15;24.92;;;;;;;;;;5109352;28;20043;-83
2021/12/15 01:53:35;;;;;;;70.05;26.08;;;;;;;;;;5091843;28;20047;-83
2021/12/15 01:56:02;;;;;;;77.40;26.02;;;;;;;;;;5109230;28;20451;-83
2021/12/15 01:58:29;;;;;;;74.03;27.33;;;;;;;;;;5092021;28;20043;-83
2021/12/15 02:00:57;;;;;;;78.05;28.38;;;;;;;;;;5092446;28;20139;-83
2021/12/15 02:03:24;;;;;;;71.93;25.80;;;;;;;;;;5109475;28;20039;-84
2021/12/15 02:05:50;;;;;;;76.25;28.50;;;;;;;;;;5108192;28;20043;-83
2021/12/15 02:08:17;;;;;;;80.15;27.25;;;;;;;;;;5108900;28;20043;-83
2021/12/15 02:10:44;;;;;;;74.10;26.65;;;;;;;;;;5110059;28;20074;-83
2021/12/15 02:13:11;;;;;;;80.97;28.73;;;;;;;;;;5109264;28;20039;-83
2021/12/15 02:15:39;;;;;;;77.75;27.35;;;;;;;;;;5108272;28;20051;-83
2021/12/15 02:18:07;;;;;;;86.10;28.80;;;;;;;;;;5108891;28;20047;-83
2021/12/15 02:20:36;;;;;;;85.15;28.33;;;;;;;;;;5108478;28;20066;-83
2021/12/15 02:23:03;;;;;;;80.03;27.25;;;;;;;;;;5109053;28;20043;-83
2021/12/15 02:25:29;;;;;;;83.85;29.08;;;;;;;;;;5108292;28;20134;-83
2021/12/15 02:27:55;;;;;;;91.05;27.85;;;;;;;;;;5108685;28;20047;-83
2021/12/15 02:38:14;;;;;;;93.03;28.25;;;;;;;;;;5108811;28;20051;-83
2021/12/15 02:40:40;;;;;;;94.13;29.15;;;;;;;;;;5108793;28;20475;-83
2021/12/15 02:43:07;;;;;;;86.60;29.25;;;;;;;;;;5092017;28;20051;-83
2021/12/15 02:45:33;;;;;;;98.35;29.25;;;;;;;;;;5107957;28;20134;-83
2021/12/15 02:48:00;;;;;;;96.47;29.77;;;;;;;;;;5108935;28;20068;-83
2021/12/15 02:50:28;;;;;;;93.90;28.92;;;;;;;;;;5108479;28;20050;-83
2021/12/15 02:52:54;;;;;;;86.82;29.25;;;;;;;;;;5108657;28;20052;-83
2021/12/15 02:55:21;;;;;;;91.75;29.70;;;;;;;;;;5109968;28;20047;-83
2021/12/15 02:57:48;;;;;;;83.32;27.98;;;;;;;;;;5107951;28;20050;-83
2021/12/15 03:00:22;;;;;;;91.35;29.38;;;;;;;;;;5091309;28;20125;-83
2021/12/15 03:03:31;;;;;;;85.63;29.73;;;;;;;;;;5090563;28;20047;-83
2021/12/15 03:05:58;;;;;;;98.65;29.42;;;;;;;;;;5097354;28;20089;-83
2021/12/15 03:08:46;;;;;;;96.05;29.67;;;;;;;;;;5097942;28;20122;-83
2021/12/15 03:16:41;;;;;;;85.10;29.20;;;;;;;;;;5100859;28;20075;-83
2021/12/15 03:19:08;;;;;;;85.70;29.48;;;;;;;;;;5108426;28;20035;-83
2021/12/15 03:21:34;;;;;;;94.75;30.50;;;;;;;;;;5091207;28;20105;-83
2021/12/15 03:24:04;;;;;;;98.22;30.17;;;;;;;;;;5108349;28;20194;-83
2021/12/15 03:26:38;;;;;;;92.68;30.63;;;;;;;;;;5107833;28;20048;-83
2021/12/15 03:34:50;;;;;;;92.78;30.30;;;;;;;;;;5087284;28;20048;-83
2021/12/15 03:37:25;;;;;;;93.45;30.10;;;;;;;;;;5122387;27;20076;-83
2021/12/15 03:39:57;;;;;;;95.63;30.63;;;;;;;;;;5121287;28;20048;-77
2021/12/15 03:42:28;;;;;;;87.15;30.27;;;;;;;;;;5074014;28;20050;-77
2021/12/15 03:44:55;;;;;;;90.22;30.48;;;;;;;;;;5074408;28;20079;-83
2021/12/15 03:47:23;;;;;;;85.75;30.38;;;;;;;;;;5091493;28;20206;-74
2021/12/15 03:49:50;;;;;;;85.55;29.92;;;;;;;;;;5073932;28;20179;-80
2021/12/15 03:52:16;;;;;;;87.10;28.83;;;;;;;;;;5091597;28;20051;-74
2021/12/15 03:54:43;;;;;;;90.70;30.48;;;;;;;;;;5073683;28;20048;-74
2021/12/15 03:57:09;;;;;;;81.80;29.60;;;;;;;;;;5074419;28;20068;-81
2021/12/15 03:59:40;;;;;;;81.72;28.27;;;;;;;;;;5090887;28;20080;-74
2021/12/15 04:02:07;;;;;;;86.97;29.48;;;;;;;;;;5092603;28;20079;-74
2021/12/15 04:04:33;;;;;;;79.45;29.58;;;;;;;;;;5091145;28;20083;-74
2021/12/15 04:06:59;;;;;;;86.32;30.58;;;;;;;;;;5090971;28;20044;-80
2021/12/15 04:09:25;;;;;;;82.03;29.58;;;;;;;;;;5090983;28;20084;-74
2021/12/15 04:11:54;;;;;;;81.30;28.70;;;;;;;;;;5090264;28;20040;-74
2021/12/15 04:14:23;;;;;;;91.30;29.20;;;;;;;;;;5074543;28;20108;-80
2021/12/15 04:17:03;;;;;;;78.75;29.50;;;;;;;;;;5124534;27;20109;-80
2021/12/15 04:19:29;;;;;;;81.63;29.27;;;;;;;;;;5124988;27;20485;-80
2021/12/15 04:21:56;;;;;;;82.75;28.80;;;;;;;;;;5090745;28;20054;-80
2021/12/15 04:24:25;;;;;;;85.63;29.30;;;;;;;;;;5091017;28;20495;-75
2021/12/15 04:26:51;;;;;;;79.82;28.80;;;;;;;;;;5124180;27;20052;-75
2021/12/15 04:29:18;;;;;;;78.32;29.92;;;;;;;;;;5090702;28;20085;-75
2021/12/15 04:31:47;;;;;;;77.30;28.88;;;;;;;;;;5093283;28;20047;-81
2021/12/15 04:34:13;;;;;;;75.68;29.48;;;;;;;;;;5110702;28;20051;-75
2021/12/15 04:36:41;;;;;;;82.32;28.75;;;;;;;;;;5110045;28;20046;-75
2021/12/15 04:39:09;;;;;;;75.53;29.67;;;;;;;;;;5111810;28;20048;-81
2021/12/15 04:41:35;;;;;;;79.25;30.30;;;;;;;;;;5110357;28;20036;-81
2021/12/15 04:44:08;;;;;;;79.63;29.48;;;;;;;;;;5112069;28;20040;-75
2021/12/15 04:46:36;;;;;;;82.85;30.52;;;;;;;;;;5110860;28;20085;-74
2021/12/15 04:49:04;;;;;;;76.45;28.67;;;;;;;;;;5110208;28;20122;-75
2021/12/15 04:51:30;;;;;;;84.30;29.70;;;;;;;;;;5110336;28;20078;-75
2021/12/15 04:53:57;;;;;;;79.47;30.00;;;;;;;;;;5109394;28;20047;-75
2021/12/15 04:56:25;;;;;;;84.57;29.90;;;;;;;;;;5110626;28;20067;-75
2021/12/15 04:58:52;;;;;;;76.25;29.33;;;;;;;;;;5092788;28;20119;-81
2021/12/15 05:01:18;;;;;;;83.68;30.13;;;;;;;;;;5093671;28;20035;-81
2021/12/15 05:03:44;;;;;;;80.35;29.40;;;;;;;;;;5110154;28;20453;-81
2021/12/15 05:06:11;;;;;;;85.47;30.05;;;;;;;;;;5093081;28;20093;-81
2021/12/15 05:08:37;;;;;;;78.68;30.00;;;;;;;;;;5110022;28;20051;-81
2021/12/15 05:11:04;;;;;;;85.18;30.60;;;;;;;;;;5110181;28;20043;-81
2021/12/15 05:13:31;;;;;;;74.40;29.08;;;;;;;;;;5109608;28;20043;-81
2021/12/15 05:15:59;;;;;;;79.50;27.80;;;;;;;;;;5110172;28;20054;-81
2021/12/15 05:18:25;;;;;;;75.22;29.83;;;;;;;;;;5110351;28;20043;-81
2021/12/15 05:20:53;;;;;;;79.78;29.08;;;;;;;;;;5109509;28;20089;-81
2021/12/15 05:23:20;;;;;;;76.57;29.27;;;;;;;;;;5093297;28;20043;-81
2021/12/15 05:25:48;;;;;;;70.53;27.73;;;;;;;;;;5109599;28;20064;-80
2021/12/15 05:28:14;;;;;;;76.78;28.63;;;;;;;;;;5111407;28;20050;-81
2021/12/15 05:30:40;;;;;;;77.00;28.60;;;;;;;;;;5110638;28;20050;-81
2021/12/15 05:33:07;;;;;;;73.88;28.15;;;;;;;;;;5126950;27;20043;-81
2021/12/15 05:35:34;;;;;;;67.40;27.67;;;;;;;;;;5109836;28;20129;-81
2021/12/15 05:38:01;;;;;;;76.55;27.65;;;;;;;;;;5110042;28;20039;-81
2021/12/15 05:40:28;;;;;;;69.22;27.52;;;;;;;;;;5112178;28;20503;-81
2021/12/15 05:42:57;;;;;;;66.32;27.58;;;;;;;;;;5109795;28;20044;-81
2021/12/15 05:45:25;;;;;;;69.32;27.55;;;;;;;;;;5109975;28;20043;-82
2021/12/15 05:47:51;;;;;;;67.05;25.80;;;;;;;;;;5109445;28;20039;-81
2021/12/15 05:50:18;;;;;;;71.07;28.10;;;;;;;;;;5109198;28;20040;-81
2021/12/15 05:52:44;;;;;;;71.07;26.85;;;;;;;;;;5110659;28;20118;-81
2021/12/15 05:55:12;;;;;;;65.65;25.17;;;;;;;;;;5109072;28;20053;-82
2021/12/15 05:57:38;;;;;;;70.13;26.90;;;;;;;;;;5108937;28;20040;-82
2021/12/15 06:00:07;;;;;;;70.90;27.27;;;;;;;;;;5108898;28;20043;-82
2021/12/15 06:02:33;;;;;;;68.75;27.52;;;;;;;;;;5108980;28;20069;-82
2021/12/15 06:04:59;;;;;;;66.43;26.73;;;;;;;;;;5091694;28;20088;-82
2021/12/15 06:07:25;;;;;;;75.68;27.85;;;;;;;;;;5108989;28;20051;-82
2021/12/15 06:09:51;;;;;;;69.45;27.00;;;;;;;;;;5108695;28;20054;-82
2021/12/15 06:12:17;;;;;;;66.15;27.27;;;;;;;;;;5092035;28;20052;-82
2021/12/15 06:14:43;;;;;;;65.35;27.23;;;;;;;;;;5126054;27;20050;-81
2021/12/15 06:17:11;;;;;;;71.72;27.10;;;;;;;;;;5108910;28;20118;-82
2021/12/15 06:19:37;;;;;;;70.53;26.55;;;;;;;;;;5109891;28;20040;-82
2021/12/15 06:22:05;;;;;;;70.90;26.80;;;;;;;;;;5108599;28;20036;-82
2021/12/15 06:24:31;;;;;;;62.92;26.17;;;;;;;;;;5108923;28;20039;-82
2021/12/15 06:27:03;;;;;;;60.30;24.60;;;;;;;;;;5108611;28;20047;-82
2021/12/15 06:29:29;;;;;;;64.85;25.45;;;;;;;;;;5108723;28;20057;-81
2021/12/15 06:31:56;;;;;;;63.85;25.10;;;;;;;;;;5108875;28;20040;-76
2021/12/15 06:34:22;;;;;;;62.42;24.40;;;;;;;;;;5108460;28;20418;-75
2021/12/15 06:36:48;;;;;;;62.47;24.98;;;;;;;;;;5107787;28;20066;-75
2021/12/15 06:39:14;;;;;;;58.63;23.70;;;;;;;;;;5091843;28;20046;-75
2021/12/15 06:41:40;;;;;;;54.85;23.42;;;;;;;;;;5108501;28;20155;-75
2021/12/15 06:44:07;;;;;;;61.72;23.48;;;;;;;;;;5109689;28;20486;-75
2021/12/15 06:59:59;;;;;;;49.60;20.85;;;;;;;;;;5108951;28;20051;-82
2021/12/15 07:02:25;;;;;;;52.33;20.70;;;;;;;;;;5109684;28;20846;-82
2021/12/15 07:04:51;;;;;;;50.05;20.55;;;;;;;;;;5108470;28;20398;-82
2021/12/15 07:07:18;;;;;;;49.38;20.20;;;;;;;;;;5109390;28;20140;-82
2021/12/15 07:09:44;;;;;;;53.33;20.77;;;;;;;;;;5108182;28;20119;-82
2021/12/15 07:12:10;;;;;;;49.50;20.13;;;;;;;;;;5125389;27;20097;-82
2021/12/15 07:14:36;;;;;;;47.33;18.85;;;;;;;;;;5091080;28;20044;-81
2021/12/15 07:17:09;;;;;;;51.45;20.08;;;;;;;;;;5111132;28;20036;-82
2021/12/15 07:19:52;;;;;;;47.72;19.85;;;;;;;;;;5111804;28;20119;-82
2021/12/15 07:22:33;;;;;;;50.80;19.55;;;;;;;;;;5113136;28;20085;-75
2021/12/15 07:24:59;;;;;;;51.45;19.08;;;;;;;;;;5111746;28;20044;-76
2021/12/15 07:27:25;;;;;;;48.92;20.23;;;;;;;;;;5112197;28;20093;-75
2021/12/15 07:29:52;;;;;;;50.20;20.65;;;;;;;;;;5112177;28;20436;-75
2021/12/15 07:32:18;;;;;;;56.83;20.75;;;;;;;;;;5112086;28;20051;-75
2021/12/15 07:34:44;;;;;;;47.20;21.00;;;;;;;;;;5111822;28;20047;-75
2021/12/15 07:37:10;;;;;;;51.65;21.55;;;;;;;;;;5111618;28;20039;-76
2021/12/15 07:39:37;;;;;;;49.78;21.63;;;;;;;;;;5111701;28;20070;-75
2021/12/15 07:42:11;;;;;;;52.22;22.30;;;;;;;;;;5095167;28;20469;-82
2021/12/15 07:44:37;;;;;;;55.28;21.73;;;;;;;;;;5095266;28;20082;-81
2021/12/15 07:47:04;;;;;;;57.45;22.50;;;;;;;;;;5112068;28;20043;-82
2021/12/15 07:49:30;;;;;;;53.58;22.60;;;;;;;;;;5077726;28;20039;-82
2021/12/15 07:52:01;;;;;;;55.88;23.13;;;;;;;;;;5111412;28;20502;-81
2021/12/15 07:54:28;;;;;;;61.70;23.38;;;;;;;;;;5078672;28;20043;-81
2021/12/15 07:56:54;;;;;;;57.58;23.13;;;;;;;;;;5111325;28;20039;-81
2021/12/15 07:59:20;;;;;;;57.65;22.25;;;;;;;;;;5094610;28;20118;-81
2021/12/15 08:01:46;;;;;;;56.17;22.48;;;;;;;;;;5111212;28;20039;-81
2021/12/15 08:04:13;;;;;;;54.83;24.17;;;;;;;;;;5111015;28;20131;-81
2021/12/15 08:06:39;;;;;;;55.45;22.70;;;;;;;;;;5111191;28;20040;-81
2021/12/15 08:09:06;;;;;;;58.80;21.95;;;;;;;;;;5111503;28;20399;-81
2021/12/15 08:11:32;;;;;;;59.65;23.45;;;;;;;;;;5111343;28;20040;-82
2021/12/15 08:13:58;;;;;;;62.42;24.75;;;;;;;;;;5111035;28;20487;-82
2021/12/15 08:16:27;;;;;;;60.17;23.75;;;;;;;;;;5111044;28;20052;-82
2021/12/15 08:18:53;;;;;;;61.70;23.42;;;;;;;;;;5094072;28;20032;-81
2021/12/15 08:21:19;;;;;;;62.30;23.58;;;;;;;;;;5112492;28;20039;-76
2021/12/15 08:23:45;;;;;;;58.20;24.70;;;;;;;;;;5110889;28;20043;-81
2021/12/15 08:26:12;;;;;;;59.95;23.80;;;;;;;;;;5110945;28;20082;-75
2021/12/15 08:28:38;;;;;;;63.13;24.83;;;;;;;;;;5110166;28;20043;-75
2021/12/15 08:31:04;;;;;;;59.67;23.90;;;;;;;;;;5110650;28;20126;-75
2021/12/15 08:33:30;;;;;;;64.90;24.45;;;;;;;;;;5111862;28;20040;-75
2021/12/15 08:36:01;;;;;;;54.80;23.25;;;;;;;;;;5093755;28;20471;-82
2021/12/15 08:38:28;;;;;;;56.42;23.33;;;;;;;;;;5110482;28;20048;-82
2021/12/15 08:40:55;;;;;;;56.25;22.83;;;;;;;;;;5093979;28;20032;-82
2021/12/15 08:43:21;;;;;;;57.70;23.42;;;;;;;;;;5094128;28;20121;-81
2021/12/15 08:45:56;;;;;;;61.35;22.42;;;;;;;;;;5111884;28;20039;-81
2021/12/15 08:48:22;;;;;;;56.08;22.33;;;;;;;;;;5093648;28;20477;-81
2021/12/15 08:50:48;;;;;;;58.05;22.45;;;;;;;;;;5093776;28;20503;-82
2021/12/15 08:53:14;;;;;;;55.10;23.63;;;;;;;;;;5127996;27;20433;-81
2021/12/15 08:55:42;;;;;;;54.95;21.77;;;;;;;;;;5110205;28;20050;-82
2021/12/15 08:58:11;;;;;;;52.38;20.50;;;;;;;;;;5110413;28;20078;-81
2021/12/15 09:00:37;;;;;;;54.20;21.35;;;;;;;;;;5127713;27;20406;-82
2021/12/15 09:03:03;;;;;;;52.45;21.35;;;;;;;;;;5110432;28;20471;-81
2021/12/15 09:05:30;;;;;;;46.92;20.45;;;;;;;;;;5093081;28;20040;-81
2021/12/15 09:07:58;;;;;;;50.13;20.63;;;;;;;;;;5110247;28;20130;-82
2021/12/15 09:10:25;;;;;;;52.05;21.10;;;;;;;;;;5093349;28;20067;-82
2021/12/15 09:12:51;;;;;;;48.72;21.05;;;;;;;;;;5110384;28;20047;-81
2021/12/15 09:15:17;;;;;;;48.33;20.25;;;;;;;;;;5110584;28;20052;-81
2021/12/15 09:17:44;;;;;;;47.85;19.70;;;;;;;;;;5110217;28;20043;-82
2021/12/15 09:20:12;;;;;;;46.70;20.42;;;;;;;;;;5109924;28;20466;-82
2021/12/15 09:22:38;;;;;;;49.97;19.58;;;;;;;;;;5110807;28;20127;-82
2021/12/15 09:25:06;;;;;;;64.20;20.38;;;;;;;;;;5109507;28;20039;-81
2021/12/15 09:27:33;;;;;;;49.17;20.05;;;;;;;;;;5109706;28;20044;-82
2021/12/15 09:29:59;;;;;;;45.78;19.55;;;;;;;;;;5109725;28;20067;-81
2021/12/15 09:32:25;;;;;;;47.38;19.85;;;;;;;;;;5093256;28;20406;-82
2021/12/15 09:34:51;;;;;;;48.38;19.90;;;;;;;;;;5109069;28;20043;-81
2021/12/15 09:37:18;;;;;;;46.10;19.27;;;;;;;;;;5109556;28;20086;-82
2021/12/15 09:39:45;;;;;;;40.80;18.70;;;;;;;;;;5108330;28;20044;-81
2021/12/15 09:42:12;;;;;;;43.00;18.15;;;;;;;;;;5092364;28;20127;-76
2021/12/15 09:44:38;;;;;;;47.72;19.10;;;;;;;;;;5092287;28;20063;-76
2021/12/15 10:03:04;;;;;;;34.22;15.57;;;;;;;;;;5108895;28;20040;-76
2021/12/15 10:18:54;;;;;;;20.90;11.90;;;;;;;;;;5108774;28;20406;-76
2021/12/15 10:21:25;;;;;;;26.00;12.93;;;;;;;;;;5110137;28;20050;-76
2021/12/15 10:23:51;;;;;;;20.90;12.18;;;;;;;;;;5091410;28;20054;-76
2021/12/15 10:26:18;;;;;;;26.63;11.98;;;;;;;;;;5108435;28;20055;-76
2021/12/15 10:28:52;;;;;;;25.20;11.52;;;;;;;;;;5108358;28;20079;-76
2021/12/15 10:31:18;;;;;;;28.55;12.98;;;;;;;;;;5108445;28;20122;-76
2021/12/15 10:33:46;;;;;;;27.67;13.10;;;;;;;;;;5108017;28;20122;-76
2021/12/15 10:36:21;;;;;;;29.80;12.93;;;;;;;;;;5108185;28;20118;-76
2021/12/15 10:38:50;;;;;;;31.67;14.13;;;;;;;;;;5108282;28;20039;-76
2021/12/15 10:41:19;;;;;;;30.60;13.93;;;;;;;;;;5092328;28;20044;-82
2021/12/15 10:43:46;;;;;;;29.55;13.93;;;;;;;;;;5091207;28;20157;-81
2021/12/15 10:46:14;;;;;;;26.65;13.27;;;;;;;;;;5091737;28;20270;-82
2021/12/15 10:49:10;;;;;;;28.48;13.70;;;;;;;;;;5108536;28;20072;-82
2021/12/15 10:51:39;;;;;;;26.30;12.95;;;;;;;;;;5089459;28;20044;-76
2021/12/15 10:54:16;;;;;;;28.75;13.98;;;;;;;;;;5112781;28;20086;-76
2021/12/15 10:56:49;;;;;;;26.92;13.00;;;;;;;;;;5112354;28;20110;-76
2021/12/15 10:59:15;;;;;;;26.55;12.20;;;;;;;;;;5112508;28;20047;-76
2021/12/15 11:01:47;;;;;;;34.15;13.35;;;;;;;;;;5095454;28;20411;-76
2021/12/15 11:04:19;;;;;;;33.67;13.57;;;;;;;;;;5112356;28;20043;-76
2021/12/15 11:06:45;;;;;;;31.80;14.25;;;;;;;;;;5112194;28;20341;-82
2021/12/15 11:09:17;;;;;;;31.58;14.05;;;;;;;;;;5095865;28;20065;-81
2021/12/15 11:12:02;;;;;;;34.00;14.18;;;;;;;;;;5112116;28;20487;-82
2021/12/15 11:14:30;;;;;;;34.05;13.75;;;;;;;;;;5095596;28;21083;-82
2021/12/15 11:17:07;;;;;;;29.00;13.45;;;;;;;;;;5094828;28;20043;-81
2021/12/15 11:19:45;;;;;;;31.73;13.52;;;;;;;;;;5095570;28;20044;-82
2021/12/15 11:22:30;;;;;;;32.55;14.02;;;;;;;;;;5095144;28;20062;-82
2021/12/15 11:24:56;;;;;;;30.95;13.07;;;;;;;;;;5111646;28;20046;-81
2021/12/15 11:27:22;;;;;;;30.50;13.15;;;;;;;;;;5129875;27;20100;-83
2021/12/15 11:29:49;;;;;;;30.60;13.95;;;;;;;;;;5112307;28;20043;-81
2021/12/15 11:32:33;;;;;;;39.03;13.93;;;;;;;;;;5112695;28;20040;-83
2021/12/15 11:35:01;;;;;;;33.42;13.90;;;;;;;;;;5095152;28;20515;-82
2021/12/15 11:37:50;;;;;;;29.88;14.13;;;;;;;;;;5112112;28;20040;-82
2021/12/15 11:40:22;;;;;;;29.45;13.13;;;;;;;;;;5058051;28;20040;-83
2021/12/15 11:42:48;;;;;;;30.98;12.90;;;;;;;;;;5094767;28;20043;-82
2021/12/15 11:45:14;;;;;;;27.05;13.32;;;;;;;;;;5111615;28;20039;-82
2021/12/15 11:47:41;;;;;;;26.48;11.77;;;;;;;;;;5111870;28;20667;-82
2021/12/15 11:50:08;;;;;;;27.45;12.68;;;;;;;;;;5095119;28;20048;-82
2021/12/15 11:52:39;;;;;;;26.70;11.05;;;;;;;;;;5094853;28;20088;-81
2021/12/15 11:55:07;;;;;;;25.42;10.63;;;;;;;;;;5111511;28;20089;-82
2021/12/15 11:57:33;;;;;;;27.90;11.38;;;;;;;;;;5111951;28;20043;-82
2021/12/15 12:00:20;;;;;;;25.50;11.40;;;;;;;;;;5111036;28;20146;-76
2021/12/15 12:02:47;;;;;;;27.45;11.10;;;;;;;;;;5110055;28;20052;-76
2021/12/15 12:05:22;;;;;;;24.67;10.70;;;;;;;;;;5111320;28;20047;-76
2021/12/15 12:07:52;;;;;;;22.08;11.10;;;;;;;;;;5110782;28;20043;-76
2021/12/15 12:10:30;;;;;;;25.92;10.82;;;;;;;;;;5111245;28;20055;-76
2021/12/15 12:13:05;;;;;;;26.13;11.10;;;;;;;;;;5110698;28;20484;-76
2021/12/15 12:15:32;;;;;;;23.88;10.35;;;;;;;;;;5111173;28;20039;-76
2021/12/15 12:18:00;;;;;;;25.20;9.88;;;;;;;;;;5110728;28;20522;-76
2021/12/15 12:20:30;;;;;;;28.27;11.43;;;;;;;;;;5111444;28;20513;-76
2021/12/15 12:22:58;;;;;;;24.13;11.48;;;;;;;;;;5110444;28;20039;-76
2021/12/15 12:25:26;;;;;;;29.08;11.45;;;;;;;;;;5110726;28;20105;-76
2021/12/15 12:27:53;;;;;;;25.13;11.77;;;;;;;;;;5110248;28;20130;-77
2021/12/15 12:30:31;;;;;;;31.77;11.98;;;;;;;;;;5111094;28;20126;-76
2021/12/15 12:32:57;;;;;;;29.40;11.15;;;;;;;;;;5110170;28;20092;-76
2021/12/15 12:35:25;;;;;;;25.73;10.82;;;;;;;;;;5110415;28;20113;-76
2021/12/15 12:37:56;;;;;;;21.58;9.48;;;;;;;;;;5110479;28;20475;-76
2021/12/15 12:40:25;;;;;;;19.23;9.63;;;;;;;;;;5110886;28;20402;-76
2021/12/15 12:42:51;;;;;;;22.95;9.77;;;;;;;;;;5110242;28;20394;-77
2021/12/15 12:45:31;;;;;;;19.02;9.10;;;;;;;;;;5110835;28;20047;-76
2021/12/15 12:48:27;;;;;;;16.88;8.77;;;;;;;;;;5110212;28;20051;-76
2021/12/15 12:59:39;;;;;;;21.63;7.60;;;;;;;;;;5110398;28;20047;-76
2021/12/15 13:02:35;;;;;;;16.55;7.28;;;;;;;;;;5111128;28;20482;-76
2021/12/15 13:05:01;;;;;;;16.70;7.13;;;;;;;;;;5109637;28;20062;-77
2021/12/15 13:07:47;;;;;;;14.35;6.28;;;;;;;;;;5093213;28;20410;-76
2021/12/15 13:10:15;;;;;;;13.85;5.97;;;;;;;;;;5093087;28;20047;-76
2021/12/15 13:12:47;;;;;;;13.82;5.22;;;;;;;;;;5109596;28;20102;-76
2021/12/15 13:15:17;;;;;;;19.02;5.80;;;;;;;;;;5109997;28;20486;-77
2021/12/15 13:18:11;;;;;;;14.52;5.10;;;;;;;;;;5092677;28;20503;-77
2021/12/15 13:20:38;;;;;;;11.35;5.32;;;;;;;;;;5092816;28;20078;-82
2021/12/15 13:23:31;;;;;;;15.00;4.88;;;;;;;;;;5109829;28;20040;-76
2021/12/15 13:28:47;;;;;;;13.15;4.75;;;;;;;;;;5109346;28;20062;-76
2021/12/15 13:31:27;;;;;;;10.40;4.30;;;;;;;;;;5109452;28;20054;-82
2021/12/15 13:33:53;;;;;;;11.82;4.50;;;;;;;;;;5109517;28;20491;-82
2021/12/15 13:36:29;;;;;;;11.05;4.30;;;;;;;;;;5109805;28;20551;-76
2021/12/15 13:38:55;;;;;;;9.02;4.13;;;;;;;;;;5109399;28;20039;-76
2021/12/15 13:44:02;;;;;;;13.50;4.00;;;;;;;;;;5109095;28;20051;-77
2021/12/15 13:46:28;;;;;;;11.40;3.83;;;;;;;;;;5110082;28;20048;-81
2021/12/15 13:48:55;;;;;;;10.00;4.03;;;;;;;;;;5092512;28;20040;-76
2021/12/15 13:51:39;;;;;;;8.88;3.38;;;;;;;;;;5110291;28;20049;-82
2021/12/15 13:54:19;;;;;;;6.57;2.75;;;;;;;;;;5110052;28;20039;-76
2021/12/15 13:56:47;;;;;;;8.23;3.15;;;;;;;;;;5092575;28;20138;-76
2021/12/15 13:59:28;;;;;;;8.18;3.10;;;;;;;;;;5092111;28;20036;-82
2021/12/15 14:02:10;;;;;;;10.05;3.30;;;;;;;;;;5109051;28;20067;-76
2021/12/15 14:04:44;;;;;;;6.45;2.90;;;;;;;;;;5109477;28;20051;-81
2021/12/15 14:07:28;;;;;;;7.80;3.90;;;;;;;;;;5109197;28;20109;-82
2021/12/15 14:09:59;;;;;;;11.13;3.13;;;;;;;;;;5111427;28;20502;-82
2021/12/15 14:12:56;;;;;;;9.85;3.50;;;;;;;;;;5109783;28;20031;-81
2021/12/15 14:15:25;;;;;;;6.10;2.40;;;;;;;;;;5076029;28;20067;-81
2021/12/15 14:17:55;;;;;;;6.55;2.60;;;;;;;;;;5091733;28;20036;-77
2021/12/15 14:20:22;;;;;;;7.80;2.40;;;;;;;;;;5109099;28;20051;-77
2021/12/15 14:22:55;;;;;;;6.35;2.60;;;;;;;;;;5108728;28;20040;-76
2021/12/15 14:25:21;;;;;;;12.18;2.78;;;;;;;;;;5091417;28;20062;-77
2021/12/15 14:27:47;;;;;;;6.82;2.50;;;;;;;;;;5108618;28;20078;-77
2021/12/15 14:30:13;;;;;;;5.18;1.92;;;;;;;;;;5108324;28;20445;-77
2021/12/15 14:32:39;;;;;;;4.38;1.95;;;;;;;;;;5108252;28;20036;-77
2021/12/15 14:35:15;;;;;;;4.65;2.00;;;;;;;;;;5091401;28;20048;-77
2021/12/15 14:37:42;;;;;;;;;;;;;;;;;;5109117;28;20032;-82
2021/12/15 14:40:08;;;;;;;4.10;1.63;;;;;;;;;;5108711;28;19998;-82
2021/12/15 14:42:38;;;;;;;5.82;1.55;;;;;;;;;;5092129;28;20482;-76
2021/12/15 14:45:06;;;;;;;5.05;1.40;;;;;;;;;;5108385;28;20043;-77
2021/12/15 14:47:33;;;;;;;3.53;1.20;;;;;;;;;;5108821;28;21209;-77
2021/12/15 14:50:02;;;;;;;3.72;1.10;;;;;;;;;;5108293;28;20062;-77
2021/12/15 14:52:30;;;;;;;3.22;1.30;;;;;;;;;;5109045;28;20553;-77
2021/12/15 14:54:58;;;;;;;5.05;1.35;;;;;;;;;;5108093;28;20085;-77
2021/12/15 14:57:25;;;;;;;7.18;1.10;;;;;;;;;;5109783;28;20044;-77
2021/12/15 14:59:53;;;;;;;5.63;1.40;;;;;;;;;;5108829;28;20514;-77
2021/12/15 15:02:27;;;;;;;4.45;1.10;;;;;;;;;;5108513;28;20538;-77
2021/12/15 15:04:58;;;;;;;3.75;1.38;;;;;;;;;;5108624;28;20040;-77
2021/12/15 15:07:27;;;;;;;4.80;1.30;;;;;;;;;;5108067;28;20043;-77
2021/12/15 15:09:55;;;;;;;5.00;1.30;;;;;;;;;;5108127;28;20067;-77
2021/12/15 15:12:24;;;;;;;6.88;1.50;;;;;;;;;;5108417;28;20092;-77
2021/12/15 15:14:51;;;;;;;4.55;1.30;;;;;;;;;;5108093;28;20083;-77
2021/12/15 15:17:47;;;;;;;5.53;1.40;;;;;;;;;;5108574;28;20093;-77
2021/12/15 15:20:13;;;;;;;;;;;;;;;;;;5108682;28;20093;-77
2021/12/15 15:22:41;;;;;;;6.05;1.30;;;;;;;;;;5091486;28;20283;-82
2021/12/15 15:25:09;;;;;;;4.70;1.50;;;;;;;;;;5107977;28;20070;-82
2021/12/15 15:27:39;;;;;;;3.88;1.48;;;;;;;;;;5091544;28;20096;-82
2021/12/15 15:30:08;;;;;;;4.72;1.30;;;;;;;;;;5108084;28;20169;-82
2021/12/15 15:32:36;;;;;;;3.10;1.50;;;;;;;;;;5108249;28;20039;-82
2021/12/15 15:35:11;;;;;;;3.30;1.60;;;;;;;;;;5090762;28;20039;-82
2021/12/15 15:37:37;;;;;;;3.20;1.40;;;;;;;;;;5110722;28;20483;-82
2021/12/15 15:40:10;;;;;;;4.75;2.28;;;;;;;;;;5111793;28;20148;-83
2021/12/15 15:42:37;;;;;;;3.47;1.42;;;;;;;;;;5112722;28;20062;-83
2021/12/15 15:45:04;;;;;;;4.18;1.80;;;;;;;;;;5112283;28;20491;-82
2021/12/15 15:47:30;;;;;;;5.10;1.60;;;;;;;;;;5111703;28;20109;-82
2021/12/15 15:49:58;;;;;;;3.47;1.67;;;;;;;;;;5112054;28;20510;-82
2021/12/15 15:52:25;;;;;;;4.75;1.88;;;;;;;;;;5112282;28;20040;-83
2021/12/15 15:54:51;;;;;;;5.60;1.90;;;;;;;;;;5111920;28;20043;-82
2021/12/15 15:57:22;;;;;;;7.85;1.92;;;;;;;;;;5111367;28;20043;-82
2021/12/15 15:59:49;;;;;;;4.72;2.00;;;;;;;;;;5112458;28;20986;-83